Terminal Aerodrome Forecast
Issued by NWS

Home | Current Version | Previous Version | Graphics & Text | Print | Product List | Glossary On
Versions: 1 2 3 4 5 6 7 8 9 10 11 12 13 14 15 16 17 18 19 20
000
FTUS43 KICT 221027 AAB
TAFHUT
TAF AMD
KHUT 221027Z 2210/2306 03007KT 6SM BR OVC005
     FM221600 08005KT P6SM OVC008
     FM222200 14013KT P6SM BKN015
     FM230300 15007KT 4SM BR BKN008=

USA.gov is the U.S. government's official web portal to all federal, state and local government web resources and services.